Aérodrome :







RETROUVEZ-NOUS SUR...

 
LOGIN :

S'inscrire | Disclaimer

   EN    FR    IT 

 









Légende :    VFR   VFR Marginal   IFR   IFR Intensif   IFR Très Intensif
Visi : 
Plafond : 
>= 8 km
>= 3000ft
5 à 8 km
1000 à 3000 ft
1500m à 5 km
500 à 1000 ft
800 à 1500m
200 à 500 ft
< 800m
< 200 ft
Symboles :   Orages  Brouillard  Fortes neiges  Fortes précipitations  Vent > 20 kt






- Altitude de l'aérodrome : 241 ft
- Code IATA : CEF


KCEF - Westover ARB/Metropolitan

DERNIER METAR :
  • 150142Z 21017G25KT 10SM SCT008 BKN014 OVC021 11/11 A2911 RMK AO2A SLP864

METARs EXPIRÉS :
  • 150056Z 19014G18KT 7SM BCFG SCT002 OVC006 11/11 A2910 RMK AO2A DZE23 SLP861 T01080108
  • 150023Z 18007KT 1/2SM R23/3500V4000FT FG VV002 08/08 A2911 RMK AO2A SLP865
  • 142356Z 19005KT 3/4SM R23/P6000FT -DZ BR BKN002 OVC004 06/06 A2912 RMK AO2A VIS 3/4V1 1/4 SLP868 60004 T00620062 10073 20059 57027
  • 142256Z 00000KT 1SM -DZ BR R23/P6000FT OVC003 06/06 A2915 RMK AO2A VIS 1V1 1/2 RAE30DZB30 SLP878 P0001 T00620062

TAF AMD TAF KCEF
Valide du 15 à 01h jusqu'au 16 à 01h UTC


150118Z 1501/1601 22012KT 9999 BKN006 OVC015 WS015/20040KT 540159 QNH2909INS
BECMG 1501/1502 23010G15KT 9999 FEW007 BKN015 OVC025 540105 QNH2911INS
TEMPO 1502/1506 25015G25KT 9000 -SHRA 520001 540105
BECMG 1505/1506 26010G15KT 9999 SCT025 BKN100 530159 QNH2928INS
BECMG 1513/1514 26015G25KT 9999 SCT035 BKN200 520004 530406 QNH2958INS
TEMPO 1514/1517 26025G35KT 530006 TX11/1501Z TN01/1511Z



MET'MAP, la Météo Aéronautique d'un coup d'oeil ! - Copyright ORBIFLY Décembre 2007 - Disclaimer

ORBIFLY MET'MAP TEAM :

Programmation & Développement : Alexandra Zaïnal
Sur une idée originale de : Baudouin d'Aumeries
Assistance à la programmation : Marc-Olivier Méhu
Soutien technique & logistique : Manuel Goepfert

Contact : metmap@orbifly.com




SOURCES & CREDITS :

   NOAA